Portada
METAR-TAF:

METAR-TAF

Aeropuertos :

Aeropuerto Internacional Moshoeshoe I

Maseru, Lesoto

latitud: 29-27S, longitud: 027-33E, altitud: 1631 m

METAR: falta

Hora: 08:53 (06:53 UTC)

Pronóstico

El informe se hizo hace 23 horas y 53 minutos, a las 07:00 UTC
Pronóstico válido del 14 a las 09 UTC al 15 a las 11 UTC
Viento kt del norte
Visibilidad 10 km o más
Escasas nubes a una altura de 900 ft
Cielo nuboso a una altura de 3000 ft
Evolucionando progresivamente
del 14 a las 09 UTC al 14 a las 11 UTC
Viento 10 kt del norte
Probabilidad 30% :
Temporalmente
del 14 a las 09 UTC al 14 a las 17 UTC
Visibilidad: 5000 m
Cielo cubierto a una altura de 3500 ft
Escasas nubes a una altura de 3500 ft, Cumulonimbus.
tormenta, lluvia
Evolucionando progresivamente
del 14 a las 17 UTC al 14 a las 19 UTC
Viento 8 kt del sur

TAF: FXMM 140700Z 1409/1511 00000KT 9999 FEW009 BKN030 BECMG 1409/1411 35010KT PROB30 TEMPO 1409/1417 5000 TSRA OVC035 FEW035CB BECMG 1417/1419 17008KT

Observaciones y pronósticos meteorológicos de más de 4000 aeropuertos (mensajes METAR y TAF).

Los puntos amarillos y rojos representan las estaciones disponibles.

Ponga el ratón en el punto deseado para ver el nombre de la estación.

Haga clic para ver las observaciones y los pronósticos meteorológicos.

Para cambiar el mapa : haga clic en los botones verdes con una cruz de color negro para hacer un zoom, en el botón verde con un guión para alejar o en las flechas verdes para mapas adyacentes.


METAR-TAF: